Back to Top

Language: 

My Weather Underground Personal Weather Station Historical Data with Graphs...

Delerius Weather Station Historical Data
Daily Summary for August 16, 2017 Units:  Metric    English   Both
« Previous Day
Next Day »
Daily Weekly Monthly Yearly Custom
  High: Low: Average:
Temperature: 21.1 °C 8.1 °C 15.3 °C
Dew Point: 12.9 °C 7.1 °C 10.5 °C
Humidity: 95 % 53 % 74 %
Wind Speed: 22.5 km/h 0 km/h 10 km/h
Wind Gust: 46.7 km/h - -
Wind:- - SSW
Pressure: 1017.8 hPa 1010 hPa -
Precipitation: 0 mm    
Historical Graphs
 
 
Tabular Data for August 16, 2017
Time Temperature Dew Point Pressure Wind Wind Speed Wind Gust Humidity Rainfall Rate (Hourly) solar Conditions
00:00 11.2 °C 9.1 °C 1017.8 hPa WNW 3.2 km/h 8 km/h 87 % 0 mm 0 W/m2
00:05 11.2 °C 9.1 °C 1017.8 hPa WNW 1.6 km/h 6.4 km/h 87 % 0 mm 0 W/m2
00:10 11.2 °C 9.1 °C 1017.8 hPa WNW 1.6 km/h 3.2 km/h 87 % 0 mm 0 W/m2
00:14 11.1 °C 8.8 °C 1017.8 hPa Calm   3.2 km/h 86 % 0 mm 0 W/m2
00:19 10.9 °C 8.7 °C 1017.8 hPa Calm   3.2 km/h 86 % 0 mm 0 W/m2
00:24 10.8 °C 8.7 °C 1017.8 hPa Calm     87 % 0 mm 0 W/m2
00:29 10.6 °C 8.5 °C 1017.8 hPa Calm     87 % 0 mm 0 W/m2
00:34 10.6 °C 8.5 °C 1017.8 hPa Calm     87 % 0 mm 0 W/m2
00:39 10.5 °C 8.6 °C 1017.8 hPa Calm     88 % 0 mm 0 W/m2
00:44 10.5 °C 8.8 °C 1017.5 hPa Calm     89 % 0 mm 0 W/m2
00:50 10.4 °C 8.5 °C 1017.5 hPa Calm     88 % 0 mm 0 W/m2
00:55 10.3 °C 8.4 °C 1017.8 hPa Calm   3.2 km/h 88 % 0 mm 0 W/m2
01:00 10.2 °C 8.4 °C 1017.8 hPa WNW 1.6 km/h 6.4 km/h 89 % 0 mm 0 W/m2
01:05 10.1 °C 8.4 °C 1017.8 hPa WNW 3.2 km/h 6.4 km/h 89 % 0 mm 0 W/m2
01:10 10.1 °C 8.4 °C 1017.5 hPa WNW 3.2 km/h 6.4 km/h 89 % 0 mm 0 W/m2
01:15 10.1 °C 8.6 °C 1017.5 hPa WNW 1.6 km/h 6.4 km/h 90 % 0 mm 0 W/m2
01:20 10.1 °C 8.6 °C 1017.8 hPa Calm   3.2 km/h 90 % 0 mm 0 W/m2
01:25 10 °C 8.4 °C 1017.5 hPa Calm   3.2 km/h 90 % 0 mm 0 W/m2
01:30 9.9 °C 8.2 °C 1017.5 hPa Calm     89 % 0 mm 0 W/m2
01:35 9.8 °C 8.2 °C 1017.8 hPa Calm     90 % 0 mm 0 W/m2
01:40 9.7 °C 8.1 °C 1017.8 hPa Calm     90 % 0 mm 0 W/m2
01:45 9.6 °C 8.1 °C 1017.8 hPa Calm     90 % 0 mm 0 W/m2
01:50 9.5 °C 7.9 °C 1017.5 hPa Calm   4.8 km/h 90 % 0 mm 0 W/m2
01:55 9.4 °C 7.8 °C 1017.5 hPa WNW 1.6 km/h 4.8 km/h 90 % 0 mm 0 W/m2
02:00 9.5 °C 8.1 °C 1017.8 hPa Calm   6.4 km/h 91 % 0 mm 0 W/m2
02:05 9.4 °C 7.8 °C 1017.8 hPa Calm   6.4 km/h 90 % 0 mm 0 W/m2
02:10 9.4 °C 8 °C 1017.8 hPa Calm     91 % 0 mm 0 W/m2
02:15 9.3 °C 7.7 °C 1017.8 hPa Calm     90 % 0 mm 0 W/m2
02:20 9.2 °C 7.8 °C 1017.8 hPa Calm     91 % 0 mm 0 W/m2
02:25 9.2 °C 7.8 °C 1017.8 hPa Calm     91 % 0 mm 0 W/m2
02:30 9.2 °C 7.8 °C 1017.8 hPa Calm     91 % 0 mm 0 W/m2
02:35 9.1 °C 7.7 °C 1017.8 hPa Calm     91 % 0 mm 0 W/m2
02:40 9.1 °C 7.7 °C 1017.8 hPa Calm     91 % 0 mm 0 W/m2
02:45 9.1 °C 7.9 °C 1017.8 hPa Calm     92 % 0 mm 0 W/m2
02:50 9.1 °C 7.9 °C 1017.8 hPa Calm     92 % 0 mm 0 W/m2
02:55 9.1 °C 7.9 °C 1017.5 hPa Calm   4.8 km/h 92 % 0 mm 0 W/m2
03:00 9.2 °C 7.9 °C 1017.5 hPa WNW 1.6 km/h 4.8 km/h 92 % 0 mm 0 W/m2
03:05 9.2 °C 7.9 °C 1017.8 hPa Calm   3.2 km/h 92 % 0 mm 0 W/m2
03:10 9.2 °C 7.9 °C 1017.8 hPa Calm     92 % 0 mm 0 W/m2
03:15 9.2 °C 7.9 °C 1017.5 hPa Calm   1.6 km/h 92 % 0 mm 0 W/m2
03:20 9 °C 7.6 °C 1017.5 hPa Calm   1.6 km/h 91 % 0 mm 0 W/m2
03:25 8.8 °C 7.4 °C 1017.5 hPa Calm     91 % 0 mm 0 W/m2
03:30 8.8 °C 7.4 °C 1017.5 hPa Calm     91 % 0 mm 0 W/m2
03:35 8.7 °C 7.3 °C 1017.5 hPa Calm     91 % 0 mm 0 W/m2
03:40 8.7 °C 7.3 °C 1017.8 hPa Calm     91 % 0 mm 0 W/m2
03:45 8.7 °C 7.3 °C 1017.5 hPa Calm     91 % 0 mm 0 W/m2
03:50 8.6 °C 7.4 °C 1017.5 hPa Calm   3.2 km/h 92 % 0 mm 0 W/m2
03:56 8.7 °C 7.5 °C 1017.5 hPa Calm   3.2 km/h 92 % 0 mm 0 W/m2
04:01 8.7 °C 7.5 °C 1017.5 hPa Calm   1.6 km/h 92 % 0 mm 0 W/m2
04:06 8.7 °C 7.5 °C 1017.5 hPa Calm   1.6 km/h 92 % 0 mm 0 W/m2
04:11 8.7 °C 7.5 °C 1017.5 hPa Calm     92 % 0 mm 0 W/m2
04:16 8.6 °C 7.4 °C 1017.5 hPa Calm     92 % 0 mm 0 W/m2
04:21 8.5 °C 7.3 °C 1017.5 hPa Calm     92 % 0 mm 0 W/m2
04:22 8.6 °C 7.4 °C 1017.5 hPa Calm     92 % 0 mm 0 W/m2
04:25 8.5 °C 7.3 °C 1017.2 hPa Calm   3.2 km/h 92 % 0 mm 0 W/m2
04:26 8.5 °C 7.3 °C 1017.2 hPa Calm   3.2 km/h 92 % 0 mm 0 W/m2
04:31 8.6 °C 7.6 °C 1017.5 hPa Calm   3.2 km/h 93 % 0 mm 0 W/m2
04:36 8.6 °C 7.6 °C 1017.5 hPa Calm     93 % 0 mm 0 W/m2
04:41 8.6 °C 7.6 °C 1017.2 hPa Calm     93 % 0 mm 0 W/m2
04:46 8.5 °C 7.4 °C 1017.2 hPa Calm     93 % 0 mm 0 W/m2
04:51 8.4 °C 7.2 °C 1017.5 hPa Calm     92 % 0 mm 0 W/m2
04:56 8.3 °C 7.2 °C 1017.5 hPa Calm   3.2 km/h 93 % 0 mm 0 W/m2
05:01 8.3 °C 7.2 °C 1017.5 hPa Calm   3.2 km/h 93 % 0 mm 0 W/m2
05:06 8.3 °C 7.2 °C 1017.5 hPa Calm   3.2 km/h 93 % 0 mm 0 W/m2
05:11 8.3 °C 7.2 °C 1017.5 hPa Calm     93 % 0 mm 0 W/m2
05:16 8.2 °C 7.1 °C 1017.5 hPa Calm     93 % 0 mm 0 W/m2
05:21 8.2 °C 7.1 °C 1017.5 hPa Calm     93 % 0 mm 0 W/m2
05:26 8.2 °C 7.1 °C 1017.5 hPa Calm     93 % 0 mm 0 W/m2
05:31 8.1 °C 7.1 °C 1017.5 hPa Calm     93 % 0 mm 0 W/m2
05:36 8.1 °C 7.1 °C 1017.5 hPa Calm   1.6 km/h 93 % 0 mm 0 W/m2
05:41 8.1 °C 7.1 °C 1017.5 hPa Calm   1.6 km/h 93 % 0 mm 0 W/m2
05:46 8.1 °C 7.1 °C 1017.5 hPa Calm   1.6 km/h 93 % 0 mm 5 W/m2
05:51 8.2 °C 7.3 °C 1017.8 hPa Calm     94 % 0 mm 5 W/m2
05:56 8.2 °C 7.3 °C 1017.5 hPa Calm     94 % 0 mm 5 W/m2
06:01 8.2 °C 7.1 °C 1017.5 hPa Calm     93 % 0 mm 7 W/m2
06:07 8.3 °C 7.4 °C 1017.8 hPa Calm     94 % 0 mm 9 W/m2
06:12 8.4 °C 7.5 °C 1017.8 hPa Calm     94 % 0 mm 11 W/m2
06:17 8.4 °C 7.5 °C 1017.8 hPa Calm     94 % 0 mm 14 W/m2
06:22 8.4 °C 7.5 °C 1017.8 hPa Calm     94 % 0 mm 18 W/m2
06:27 8.5 °C 7.6 °C 1017.8 hPa Calm     94 % 0 mm 21 W/m2
06:32 8.6 °C 7.7 °C 1017.8 hPa Calm     94 % 0 mm 23 W/m2
06:37 8.5 °C 7.6 °C 1017.8 hPa Calm     94 % 0 mm 26 W/m2
06:42 8.6 °C 7.7 °C 1017.8 hPa Calm     94 % 0 mm 30 W/m2
06:47 8.7 °C 7.8 °C 1017.8 hPa Calm   3.2 km/h 94 % 0 mm 33 W/m2
06:52 8.8 °C 7.9 °C 1017.8 hPa Calm   3.2 km/h 94 % 0 mm 35 W/m2
06:57 8.8 °C 7.9 °C 1017.8 hPa Calm   3.2 km/h 94 % 0 mm 40 W/m2
07:02 9 °C 8.1 °C 1017.8 hPa Calm     94 % 0 mm 46 W/m2
07:07 9.1 °C 8.2 °C 1017.8 hPa Calm     94 % 0 mm 53 W/m2
07:12 9.3 °C 8.6 °C 1017.8 hPa Calm   1.6 km/h 95 % 0 mm 70 W/m2
07:17 9.6 °C 8.8 °C 1017.8 hPa Calm   1.6 km/h 95 % 0 mm 160 W/m2
07:22 9.9 °C 9.1 °C 1017.8 hPa Calm   3.2 km/h 95 % 0 mm 206 W/m2
07:27 10.5 °C 9.7 °C 1017.8 hPa Calm   3.2 km/h 95 % 0 mm 149 W/m2
07:32 10.9 °C 9.9 °C 1017.8 hPa Calm   4.8 km/h 94 % 0 mm 223 W/m2
07:37 11.5 °C 10.4 °C 1017.8 hPa Calm   4.8 km/h 93 % 0 mm 267 W/m2
07:42 12.1 °C 10.7 °C 1017.8 hPa Calm   3.2 km/h 91 % 0 mm 171 W/m2
07:47 12.3 °C 10.6 °C 1017.8 hPa Calm   3.2 km/h 89 % 0 mm 193 W/m2
07:52 12.6 °C 10.7 °C 1017.8 hPa Calm   6.4 km/h 88 % 0 mm 144 W/m2
07:57 12.8 °C 10.7 °C 1017.5 hPa WNW 1.6 km/h 8 km/h 87 % 0 mm 123 W/m2
08:02 12.9 °C 10.6 °C 1017.8 hPa SE 4.8 km/h 9.7 km/h 86 % 0 mm 135 W/m2
08:07 13 °C 10.7 °C 1017.8 hPa ESE 6.4 km/h 9.7 km/h 86 % 0 mm 121 W/m2
08:12 13.1 °C 10.6 °C 1017.8 hPa ESE 3.2 km/h 9.7 km/h 85 % 0 mm 127 W/m2
08:17 13.2 °C 10.7 °C 1017.8 hPa ESE 4.8 km/h 9.7 km/h 85 % 0 mm 146 W/m2
08:22 13.2 °C 10.7 °C 1017.8 hPa ESE 6.4 km/h 9.7 km/h 85 % 0 mm 158 W/m2
08:27 13.4 °C 10.9 °C 1017.8 hPa ESE 6.4 km/h 11.3 km/h 85 % 0 mm 297 W/m2
08:32 13.6 °C 11.1 °C 1017.8 hPa ESE 6.4 km/h 11.3 km/h 85 % 0 mm 260 W/m2
08:37 13.8 °C 11.2 °C 1017.8 hPa ESE 6.4 km/h 12.9 km/h 84 % 0 mm 283 W/m2
08:42 13.8 °C 11.2 °C 1017.8 hPa SE 8 km/h 12.9 km/h 84 % 0 mm 271 W/m2
08:47 14.1 °C 11.3 °C 1017.8 hPa SE 6.4 km/h 11.3 km/h 83 % 0 mm 295 W/m2
08:52 14.2 °C 11.3 °C 1017.8 hPa ESE 6.4 km/h 12.9 km/h 83 % 0 mm 341 W/m2
08:57 14.5 °C 11.4 °C 1017.8 hPa ESE 4.8 km/h 12.9 km/h 82 % 0 mm 295 W/m2
09:02 14.8 °C 11.8 °C 1017.8 hPa East 1.6 km/h 8 km/h 82 % 0 mm 327 W/m2
09:07 15 °C 11.6 °C 1017.8 hPa ESE 4.8 km/h 11.3 km/h 80 % 0 mm 366 W/m2
09:12 15.1 °C 11.3 °C 1017.8 hPa SSE 6.4 km/h 14.5 km/h 78 % 0 mm 362 W/m2
09:17 15.2 °C 11.6 °C 1017.8 hPa South 6.4 km/h 14.5 km/h 79 % 0 mm 482 W/m2
09:22 15.4 °C 11.4 °C 1017.8 hPa South 6.4 km/h 16.1 km/h 77 % 0 mm 420 W/m2
09:27 15.6 °C 11.2 °C 1017.8 hPa South 8 km/h 16.1 km/h 75 % 0 mm 318 W/m2
09:32 15.7 °C 11.1 °C 1017.8 hPa South 9.7 km/h 19.3 km/h 74 % 0 mm 246 W/m2
09:37 15.7 °C 11.1 °C 1017.8 hPa SSW 12.9 km/h 29 km/h 74 % 0 mm 229 W/m2
09:42 15.7 °C 11.3 °C 1017.8 hPa SSW 11.3 km/h 29 km/h 75 % 0 mm 264 W/m2
09:47 15.8 °C 11.6 °C 1017.8 hPa SSW 8 km/h 16.1 km/h 76 % 0 mm 343 W/m2
09:52 15.9 °C 11.4 °C 1017.8 hPa SSW 8 km/h 16.1 km/h 75 % 0 mm 394 W/m2
09:57 16.1 °C 11.7 °C 1017.8 hPa South 9.7 km/h 16.1 km/h 75 % 0 mm 457 W/m2
10:02 16.2 °C 11.8 °C 1017.8 hPa South 9.7 km/h 16.1 km/h 75 % 0 mm 366 W/m2
10:07 16.3 °C 12.1 °C 1017.8 hPa South 9.7 km/h 14.5 km/h 76 % 0 mm 278 W/m2
10:13 16.4 °C 11.8 °C 1017.8 hPa SSW 9.7 km/h 20.9 km/h 74 % 0 mm 422 W/m2
10:18 16.3 °C 11.4 °C 1017.8 hPa SW 14.5 km/h 22.5 km/h 73 % 0 mm 687 W/m2
10:23 16.4 °C 11.8 °C 1017.5 hPa SW 14.5 km/h 22.5 km/h 74 % 0 mm 728 W/m2
10:28 16.7 °C 11.8 °C 1017.5 hPa SW 12.9 km/h 19.3 km/h 73 % 0 mm 679 W/m2
10:33 16.9 °C 11.8 °C 1017.5 hPa SW 16.1 km/h 25.7 km/h 72 % 0 mm 747 W/m2
10:38 17.1 °C 11.6 °C 1017.2 hPa SSW 17.7 km/h 29 km/h 70 % 0 mm 775 W/m2
10:43 17.2 °C 11.2 °C 1017.2 hPa SSW 17.7 km/h 29 km/h 68 % 0 mm 482 W/m2
10:48 17.3 °C 11.3 °C 1017.2 hPa SSW 17.7 km/h 29 km/h 68 % 0 mm 629 W/m2
10:53 17.4 °C 11.4 °C 1017.2 hPa SSW 16.1 km/h 33.8 km/h 68 % 0 mm 624 W/m2
10:58 17.6 °C 11.2 °C 1017.2 hPa SSW 17.7 km/h 33.8 km/h 66 % 0 mm 489 W/m2
11:03 17.6 °C 11.2 °C 1017.2 hPa SSW 19.3 km/h 30.6 km/h 66 % 0 mm 390 W/m2
11:08 17.6 °C 11.4 °C 1017.2 hPa SSW 17.7 km/h 32.2 km/h 67 % 0 mm 466 W/m2
11:13 17.6 °C 11.4 °C 1016.8 hPa SSW 16.1 km/h 32.2 km/h 67 % 0 mm 909 W/m2
11:18 17.9 °C 11.2 °C 1016.8 hPa SSW 19.3 km/h 32.2 km/h 65 % 0 mm 846 W/m2
11:23 18.2 °C 11.5 °C 1016.8 hPa SW 19.3 km/h 30.6 km/h 65 % 0 mm 884 W/m2
11:28 18.4 °C 11.4 °C 1016.8 hPa SSW 17.7 km/h 29 km/h 64 % 0 mm 403 W/m2
11:33 18.4 °C 11.7 °C 1016.8 hPa SW 17.7 km/h 29 km/h 65 % 0 mm 742 W/m2
11:38 18.7 °C 12 °C 1016.5 hPa SSW 16.1 km/h 29 km/h 65 % 0 mm 830 W/m2
11:43 19 °C 12.1 °C 1016.5 hPa SSW 16.1 km/h 33.8 km/h 64 % 0 mm 891 W/m2
11:48 19.1 °C 11.9 °C 1016.5 hPa South 16.1 km/h 33.8 km/h 63 % 0 mm 925 W/m2
11:53 19 °C 11.8 °C 1016.5 hPa SSW 16.1 km/h 29 km/h 63 % 0 mm 388 W/m2
11:58 18.9 °C 12.2 °C 1016.5 hPa SSW 16.1 km/h 33.8 km/h 65 % 0 mm 838 W/m2
12:03 19.1 °C 11.9 °C 1016.5 hPa SSW 16.1 km/h 33.8 km/h 63 % 0 mm 928 W/m2
12:08 19.2 °C 12 °C 1016.5 hPa SSW 16.1 km/h 33.8 km/h 63 % 0 mm 717 W/m2
12:13 19.3 °C 11.6 °C 1016.1 hPa SW 16.1 km/h 37 km/h 61 % 0 mm 969 W/m2
12:18 19.3 °C 11.8 °C 1016.1 hPa SW 19.3 km/h 37 km/h 62 % 0 mm 912 W/m2
12:23 19.5 °C 11.3 °C 1016.1 hPa SW 19.3 km/h 33.8 km/h 59 % 0 mm 944 W/m2
12:28 19.6 °C 11.4 °C 1016.1 hPa SW 19.3 km/h 33.8 km/h 59 % 0 mm 1013 W/m2
12:33 19.4 °C 10.9 °C 1016.1 hPa SSW 20.9 km/h 38.6 km/h 58 % 0 mm 613 W/m2
12:38 19.3 °C 11.3 °C 1016.1 hPa SSW 22.5 km/h 38.6 km/h 60 % 0 mm 536 W/m2
12:43 19.4 °C 11.4 °C 1016.1 hPa SSW 20.9 km/h 35.4 km/h 60 % 0 mm 517 W/m2
12:48 19.3 °C 11.8 °C 1016.1 hPa SSW 19.3 km/h 35.4 km/h 62 % 0 mm 691 W/m2
12:53 19.2 °C 11.2 °C 1015.8 hPa SSW 17.7 km/h 33.8 km/h 60 % 0 mm 489 W/m2
12:58 19.2 °C 11.7 °C 1015.8 hPa SW 16.1 km/h 29 km/h 62 % 0 mm 388 W/m2
13:03 19.4 °C 11.7 °C 1015.8 hPa SSW 14.5 km/h 32.2 km/h 61 % 0 mm 867 W/m2
13:08 19.6 °C 11.6 °C 1015.8 hPa South 14.5 km/h 32.2 km/h 60 % 0 mm 469 W/m2
13:13 19.8 °C 12.1 °C 1015.8 hPa South 14.5 km/h 30.6 km/h 61 % 0 mm 844 W/m2
13:18 19.8 °C 11.8 °C 1015.8 hPa SSW 14.5 km/h 29 km/h 60 % 0 mm 867 W/m2
13:23 19.8 °C 11.6 °C 1015.8 hPa SSW 16.1 km/h 29 km/h 59 % 0 mm 742 W/m2
13:28 19.8 °C 11.6 °C 1015.5 hPa SSW 16.1 km/h 32.2 km/h 59 % 0 mm 410 W/m2
13:33 19.7 °C 11.7 °C 1015.8 hPa SSW 16.1 km/h 33.8 km/h 60 % 0 mm 489 W/m2
13:38 19.8 °C 11.3 °C 1015.8 hPa SW 17.7 km/h 33.8 km/h 58 % 0 mm 410 W/m2
13:43 19.8 °C 11.3 °C 1015.8 hPa SSW 19.3 km/h 38.6 km/h 58 % 0 mm 942 W/m2
13:48 20.1 °C 11.6 °C 1015.8 hPa SSW 17.7 km/h 38.6 km/h 58 % 0 mm 874 W/m2
13:54 20.1 °C 11.8 °C 1015.8 hPa SSW 17.7 km/h 33.8 km/h 59 % 0 mm 390 W/m2
13:59 20.3 °C 11.8 °C 1015.8 hPa SW 17.7 km/h 33.8 km/h 58 % 0 mm 684 W/m2
14:04 20.4 °C 11.6 °C 1015.8 hPa SW 19.3 km/h 35.4 km/h 57 % 0 mm 274 W/m2
14:09 20.2 °C 11.4 °C 1015.8 hPa SSW 19.3 km/h 35.4 km/h 57 % 0 mm 954 W/m2
14:14 20 °C 11.5 °C 1015.8 hPa SSW 19.3 km/h 35.4 km/h 58 % 0 mm 954 W/m2
14:19 20.1 °C 11.8 °C 1015.5 hPa SSW 17.7 km/h 32.2 km/h 59 % 0 mm 355 W/m2
14:24 20.1 °C 11.6 °C 1015.5 hPa SSW 16.1 km/h 30.6 km/h 58 % 0 mm 209 W/m2
14:29 20.1 °C 11.6 °C 1015.5 hPa SW 17.7 km/h 30.6 km/h 58 % 0 mm 900 W/m2
14:34 20.1 °C 11.6 °C 1015.5 hPa SSW 17.7 km/h 38.6 km/h 58 % 0 mm 895 W/m2
14:39 20.2 °C 11.7 °C 1015.5 hPa SSW 17.7 km/h 38.6 km/h 58 % 0 mm 860 W/m2
14:44 20.2 °C 11.7 °C 1015.1 hPa SSW 19.3 km/h 33.8 km/h 58 % 0 mm 916 W/m2
14:49 20.2 °C 11.7 °C 1015.1 hPa SW 20.9 km/h 33.8 km/h 58 % 0 mm 700 W/m2
14:54 20.3 °C 11.8 °C 1015.1 hPa SW 17.7 km/h 30.6 km/h 58 % 0 mm 851 W/m2
14:59 20.4 °C 11.3 °C 1015.1 hPa SSW 17.7 km/h 30.6 km/h 56 % 0 mm 909 W/m2
15:04 20.6 °C 11.5 °C 1015.1 hPa SSW 17.7 km/h 30.6 km/h 56 % 0 mm 853 W/m2
15:09 20.5 °C 11.4 °C 1014.8 hPa South 16.1 km/h 30.6 km/h 56 % 0 mm 940 W/m2
15:14 20.6 °C 11.2 °C 1014.8 hPa SSW 17.7 km/h 35.4 km/h 55 % 0 mm 898 W/m2
15:19 20.7 °C 11.3 °C 1014.8 hPa SSW 19.3 km/h 35.4 km/h 55 % 0 mm 301 W/m2
15:24 20.6 °C 11.2 °C 1014.8 hPa SSW 17.7 km/h 33.8 km/h 55 % 0 mm 759 W/m2
15:29 20.8 °C 11.4 °C 1014.8 hPa SSW 17.7 km/h 33.8 km/h 55 % 0 mm 895 W/m2
15:34 21.1 °C 11.4 °C 1014.4 hPa SSW 19.3 km/h 41.8 km/h 54 % 0 mm 914 W/m2
15:39 21 °C 11.1 °C 1014.4 hPa SSW 19.3 km/h 41.8 km/h 53 % 0 mm 229 W/m2
15:44 20.8 °C 10.9 °C 1014.4 hPa SSW 17.7 km/h 33.8 km/h 53 % 0 mm 262 W/m2
15:49 20.6 °C 11.2 °C 1014.4 hPa SSW 16.1 km/h 33.8 km/h 55 % 0 mm 385 W/m2
15:54 20.7 °C 11.1 °C 1014.4 hPa SSW 12.9 km/h 30.6 km/h 54 % 0 mm 264 W/m2
15:59 20.6 °C 10.9 °C 1014.4 hPa South 14.5 km/h 29 km/h 54 % 0 mm 234 W/m2
16:04 20.5 °C 11.2 °C 1014.4 hPa South 16.1 km/h 32.2 km/h 55 % 0 mm 325 W/m2
16:09 20.5 °C 11.2 °C 1014.4 hPa SSW 16.1 km/h 32.2 km/h 55 % 0 mm 316 W/m2
16:14 20.5 °C 11.2 °C 1014.4 hPa SSW 14.5 km/h 29 km/h 55 % 0 mm 250 W/m2
16:19 20.4 °C 10.8 °C 1014.4 hPa SSW 14.5 km/h 30.6 km/h 54 % 0 mm 214 W/m2
16:24 20.3 °C 10.7 °C 1014.1 hPa SW 17.7 km/h 33.8 km/h 54 % 0 mm 246 W/m2
16:29 20.2 °C 11.1 °C 1014.1 hPa SW 17.7 km/h 33.8 km/h 56 % 0 mm 209 W/m2
16:34 20.1 °C 11.1 °C 1014.1 hPa SW 16.1 km/h 33.8 km/h 56 % 0 mm 207 W/m2
16:37 20.1 °C 11.1 °C 1014.1 hPa SSW 16.1 km/h 33.8 km/h 56 % 0 mm 186 W/m2
16:41 20.1 °C 11.1 °C 1014.1 hPa SSW 16.1 km/h 29 km/h 56 % 0 mm 176 W/m2
16:46 20 °C 10.9 °C 1013.8 hPa SSW 17.7 km/h 29 km/h 56 % 0 mm 192 W/m2
16:51 20 °C 11.5 °C 1013.4 hPa SSW 16.1 km/h 29 km/h 58 % 0 mm 160 W/m2
16:56 20 °C 11.2 °C 1013.4 hPa South 14.5 km/h 25.7 km/h 57 % 0 mm 125 W/m2
17:01 19.9 °C 11.1 °C 1013.4 hPa South 19.3 km/h 33.8 km/h 57 % 0 mm 128 W/m2
17:06 19.8 °C 11.3 °C 1013.4 hPa SSW 19.3 km/h 33.8 km/h 58 % 0 mm 105 W/m2
17:11 19.8 °C 11.3 °C 1013.4 hPa South 17.7 km/h 32.2 km/h 58 % 0 mm 100 W/m2
17:16 19.7 °C 11.2 °C 1013.4 hPa South 14.5 km/h 32.2 km/h 58 % 0 mm 132 W/m2
17:21 19.8 °C 11.6 °C 1013.8 hPa SSW 12.9 km/h 24.1 km/h 59 % 0 mm 141 W/m2
17:26 19.8 °C 11.6 °C 1013.8 hPa SSW 14.5 km/h 25.7 km/h 59 % 0 mm 137 W/m2
17:31 19.8 °C 11.6 °C 1013.8 hPa SSW 14.5 km/h 25.7 km/h 59 % 0 mm 135 W/m2
17:36 19.8 °C 11.6 °C 1013.8 hPa SSW 17.7 km/h 37 km/h 59 % 0 mm 160 W/m2
17:41 19.8 °C 11.6 °C 1013.4 hPa SSW 17.7 km/h 37 km/h 59 % 0 mm 74 W/m2
17:46 19.8 °C 11.8 °C 1013.4 hPa SSW 16.1 km/h 30.6 km/h 60 % 0 mm 76 W/m2
17:51 19.7 °C 11.4 °C 1013.1 hPa SSW 17.7 km/h 35.4 km/h 59 % 0 mm 84 W/m2
17:56 19.7 °C 11.7 °C 1013.1 hPa SSW 17.7 km/h 35.4 km/h 60 % 0 mm 81 W/m2
18:01 19.7 °C 11.7 °C 1013.1 hPa SSW 14.5 km/h 29 km/h 60 % 0 mm 81 W/m2
18:06 19.7 °C 11.7 °C 1013.1 hPa SSW 12.9 km/h 29 km/h 60 % 0 mm 81 W/m2
18:11 19.7 °C 11.7 °C 1013.1 hPa SSW 12.9 km/h 32.2 km/h 60 % 0 mm 79 W/m2
18:16 19.7 °C 11.7 °C 1012.8 hPa SSW 14.5 km/h 32.2 km/h 60 % 0 mm 67 W/m2
18:21 19.6 °C 11.9 °C 1013.1 hPa SSW 14.5 km/h 35.4 km/h 61 % 0 mm 53 W/m2
18:26 19.6 °C 11.9 °C 1013.1 hPa SSW 14.5 km/h 35.4 km/h 61 % 0 mm 54 W/m2
18:31 19.6 °C 11.9 °C 1012.8 hPa SSW 12.9 km/h 20.9 km/h 61 % 0 mm 54 W/m2
18:36 19.5 °C 12 °C 1012.8 hPa SSW 14.5 km/h 32.2 km/h 62 % 0 mm 51 W/m2
18:41 19.4 °C 11.9 °C 1012.8 hPa SSW 17.7 km/h 32.2 km/h 62 % 0 mm 53 W/m2
18:46 19.4 °C 11.9 °C 1012.8 hPa SSW 17.7 km/h 30.6 km/h 62 % 0 mm 51 W/m2
18:51 19.4 °C 11.9 °C 1012.4 hPa SSW 16.1 km/h 30.6 km/h 62 % 0 mm 47 W/m2
18:56 19.4 °C 11.9 °C 1012.4 hPa SSW 16.1 km/h 29 km/h 62 % 0 mm 51 W/m2
19:01 19.4 °C 11.9 °C 1012.4 hPa SSW 16.1 km/h 29 km/h 62 % 0 mm 49 W/m2
19:06 19.4 °C 11.9 °C 1012.1 hPa SSW 17.7 km/h 35.4 km/h 62 % 0 mm 46 W/m2
19:11 19.4 °C 11.9 °C 1012.1 hPa SSW 17.7 km/h 35.4 km/h 62 % 0 mm 44 W/m2
19:16 19.4 °C 12.2 °C 1012.1 hPa SSW 17.7 km/h 32.2 km/h 63 % 0 mm 39 W/m2
19:21 19.4 °C 11.9 °C 1012.1 hPa SSW 17.7 km/h 32.2 km/h 62 % 0 mm 32 W/m2
19:26 19.4 °C 11.9 °C 1012.1 hPa SSW 16.1 km/h 29 km/h 62 % 0 mm 25 W/m2
19:31 19.4 °C 12.2 °C 1011.7 hPa SSW 16.1 km/h 29 km/h 63 % 0 mm 21 W/m2
19:36 19.4 °C 12.2 °C 1011.7 hPa SSW 14.5 km/h 29 km/h 63 % 0 mm 16 W/m2
19:41 19.4 °C 12.2 °C 1011.7 hPa SSW 12.9 km/h 22.5 km/h 63 % 0 mm 19 W/m2
19:46 19.4 °C 12.2 °C 1012.1 hPa SSW 14.5 km/h 32.2 km/h 63 % 0 mm 23 W/m2
19:52 19.3 °C 12.1 °C 1011.7 hPa SSW 16.1 km/h 32.2 km/h 63 % 0 mm 21 W/m2
19:57 19.3 °C 12.1 °C 1012.1 hPa SSW 14.5 km/h 25.7 km/h 63 % 0 mm 16 W/m2
20:02 19.3 °C 12.3 °C 1012.1 hPa SSW 14.5 km/h 24.1 km/h 64 % 0 mm 16 W/m2
20:07 19.2 °C 12.4 °C 1012.1 hPa SSW 19.3 km/h 43.5 km/h 65 % 0 mm 12 W/m2
20:12 19.1 °C 12.6 °C 1012.4 hPa SSW 22.5 km/h 43.5 km/h 66 % 0 mm 9 W/m2
20:17 18.9 °C 12.6 °C 1012.4 hPa SW 19.3 km/h 33.8 km/h 67 % 0 mm 7 W/m2
20:22 18.7 °C 12.4 °C 1012.1 hPa SSW 17.7 km/h 29 km/h 67 % 0 mm 0 W/m2
20:27 18.6 °C 12.6 °C 1012.1 hPa SSW 16.1 km/h 29 km/h 68 % 0 mm 0 W/m2
20:32 18.5 °C 12.7 °C 1012.1 hPa SSW 14.5 km/h 29 km/h 69 % 0 mm 0 W/m2
20:37 18.4 °C 12.8 °C 1012.1 hPa SSW 12.9 km/h 29 km/h 70 % 0 mm 0 W/m2
20:42 18.3 °C 12.7 °C 1012.1 hPa SSW 14.5 km/h 30.6 km/h 70 % 0 mm 0 W/m2
20:47 18.3 °C 12.9 °C 1012.1 hPa SSW 16.1 km/h 30.6 km/h 71 % 0 mm 0 W/m2
20:52 18.2 °C 12.8 °C 1012.1 hPa SSW 16.1 km/h 29 km/h 71 % 0 mm 0 W/m2
20:57 18.2 °C 12.8 °C 1012.1 hPa SSW 16.1 km/h 25.7 km/h 71 % 0 mm 0 W/m2
21:02 18.1 °C 12.8 °C 1011.7 hPa SSW 14.5 km/h 25.7 km/h 71 % 0 mm 0 W/m2
21:07 18.1 °C 12.8 °C 1011.7 hPa SSW 11.3 km/h 20.9 km/h 71 % 0 mm 0 W/m2
21:12 18.1 °C 12.8 °C 1011.7 hPa SSW 12.9 km/h 22.5 km/h 71 % 0 mm 0 W/m2
21:17 18.1 °C 12.9 °C 1011.7 hPa South 14.5 km/h 25.7 km/h 72 % 0 mm 0 W/m2
21:22 18.1 °C 12.9 °C 1011.7 hPa South 16.1 km/h 30.6 km/h 72 % 0 mm 0 W/m2
21:27 18.1 °C 12.8 °C 1011.7 hPa SSW 16.1 km/h 37 km/h 71 % 0 mm 0 W/m2
21:32 18.1 °C 12.8 °C 1011.7 hPa SSW 17.7 km/h 37 km/h 71 % 0 mm 0 W/m2
21:37 18.1 °C 12.8 °C 1011.4 hPa SSW 19.3 km/h 32.2 km/h 71 % 0 mm 0 W/m2
21:42 18.1 °C 12.8 °C 1011.4 hPa SSW 19.3 km/h 35.4 km/h 71 % 0 mm 0 W/m2
21:47 18.1 °C 12.8 °C 1011.4 hPa SSW 17.7 km/h 35.4 km/h 71 % 0 mm 0 W/m2
21:52 18 °C 12.7 °C 1011.4 hPa SSW 17.7 km/h 30.6 km/h 71 % 0 mm 0 W/m2
21:57 17.9 °C 12.6 °C 1011.1 hPa South 17.7 km/h 32.2 km/h 71 % 0 mm 0 W/m2
22:02 17.9 °C 12.6 °C 1010.7 hPa South 16.1 km/h 32.2 km/h 71 % 0 mm 0 W/m2
22:07 17.9 °C 12.6 °C 1010.7 hPa SSW 19.3 km/h 46.7 km/h 71 % 0 mm 0 W/m2
22:12 17.8 °C 12.4 °C 1010.7 hPa SSW 20.9 km/h 46.7 km/h 71 % 0 mm 0 W/m2
22:17 17.8 °C 12.4 °C 1010.4 hPa South 17.7 km/h 37 km/h 71 % 0 mm 0 W/m2
22:23 17.7 °C 12.4 °C 1010.4 hPa South 14.5 km/h 32.2 km/h 71 % 0 mm 0 W/m2
22:28 17.7 °C 12.4 °C 1010 hPa SSE 16.1 km/h 33.8 km/h 71 % 0 mm 0 W/m2
22:33 17.6 °C 12.3 °C 1010 hPa SSE 17.7 km/h 33.8 km/h 71 % 0 mm 0 W/m2
22:38 17.6 °C 12.3 °C 1010 hPa South 14.5 km/h 29 km/h 71 % 0 mm 0 W/m2
22:43 17.5 °C 12.2 °C 1010 hPa South 12.9 km/h 29 km/h 71 % 0 mm 0 W/m2
22:48 17.5 °C 12.2 °C 1010 hPa South 11.3 km/h 25.7 km/h 71 % 0 mm 0 W/m2
22:53 17.4 °C 12.1 °C 1010.4 hPa South 12.9 km/h 25.7 km/h 71 % 0 mm 0 W/m2
22:58 17.4 °C 12.1 °C 1010.7 hPa SSW 12.9 km/h 22.5 km/h 71 % 0 mm 0 W/m2
23:03 17.4 °C 12.1 °C 1010.7 hPa SSW 11.3 km/h 29 km/h 71 % 0 mm 0 W/m2
23:08 17.3 °C 11.8 °C 1010.4 hPa SSW 16.1 km/h 37 km/h 70 % 0 mm 0 W/m2
23:13 17.3 °C 11.8 °C 1010 hPa SSW 17.7 km/h 37 km/h 70 % 0 mm 0 W/m2
23:18 17.3 °C 11.8 °C 1010 hPa SSW 16.1 km/h 32.2 km/h 70 % 0 mm 0 W/m2
23:23 17.3 °C 11.8 °C 1010 hPa SSW 14.5 km/h 32.2 km/h 70 % 0 mm 0 W/m2
23:28 17.2 °C 11.7 °C 1010 hPa SSW 12.9 km/h 30.6 km/h 70 % 0 mm 0 W/m2
23:33 17.2 °C 11.7 °C 1010.4 hPa SSW 12.9 km/h 30.6 km/h 70 % 0 mm 0 W/m2
23:38 17.2 °C 11.7 °C 1010.4 hPa SSW 11.3 km/h 20.9 km/h 70 % 0 mm 0 W/m2
23:43 17.1 °C 11.6 °C 1010.4 hPa SSW 11.3 km/h 19.3 km/h 70 % 0 mm 0 W/m2
23:48 17.2 °C 12.1 °C 1010 hPa South 9.7 km/h 17.7 km/h 72 % 0 mm 0 W/m2
23:53 17.1 °C 12.4 °C 1010 hPa South 11.3 km/h 20.9 km/h 74 % 0 mm 0 W/m2
23:58 16.8 °C 12.1 °C 1010 hPa South 12.9 km/h 22.5 km/h 74 % 0 mm 0 W/m2
Delerius-Weather
Compliments of Weather Underground - 2.25 mb

Data updates at regular intervals.